NCAR-RAP Real-Time Weather Data

Output produced by METARs form (10 April 2020  07:17 UTC)
found at http://weather.rap.ucar.edu/surface/
 
KGSO 100654Z 29008KT 10SM SCT250 09/M04 A2965 RMK AO2 SLP035 T00941039